Time;durP1;ratioP1;P1;durP2;ratioP2;P2;SDS_P1;SDS_P2;PMS_P1;PMS_P2;Temp;Humidity;BMP_temperature;BMP_pressure;BME280_temperature;BME280_humidity;BME280_pressure;Samples;Min_cycle;Max_cycle;Signal;HPM_P1;HPM_P2
2021/06/22 00:00:13;;;;;;;0.88;0.88;;;16.70;99.90;;;;;;5069567;28;20208;-79
2021/06/22 00:02:39;;;;;;;0.85;0.85;;;16.60;99.90;;;;;;5052236;28;21045;-80
2021/06/22 00:05:06;;;;;;;1.15;1.00;;;16.50;99.90;;;;;;5069407;28;20192;-80
2021/06/22 00:07:32;;;;;;;1.50;1.40;;;16.50;99.90;;;;;;5068910;28;20184;-78
2021/06/22 00:09:57;;;;;;;1.10;1.00;;;16.50;99.90;;;;;;5052034;28;20263;-79
2021/06/22 00:12:23;;;;;;;1.45;0.93;;;16.60;99.90;;;;;;5068674;28;20181;-78
2021/06/22 00:14:48;;;;;;;0.80;0.70;;;16.60;99.90;;;;;;5051937;28;20196;-79
2021/06/22 00:17:14;;;;;;;3.90;1.60;;;16.60;99.90;;;;;;5070200;28;20178;-79
2021/06/22 00:19:40;;;;;;;0.90;0.70;;;16.70;99.90;;;;;;5069919;28;20197;-79
2021/06/22 00:22:05;;;;;;;0.77;0.77;;;16.70;99.90;;;;;;5071272;28;20170;-80
2021/06/22 00:24:31;;;;;;;1.05;0.95;;;16.80;99.90;;;;;;5070043;28;20197;-80
2021/06/22 00:26:57;;;;;;;1.73;1.20;;;16.70;99.90;;;;;;5069692;28;20571;-77
2021/06/22 00:29:24;;;;;;;1.00;0.90;;;16.60;99.90;;;;;;5069289;28;20403;-78
2021/06/22 00:31:51;;;;;;;0.95;0.85;;;16.60;99.90;;;;;;5074125;28;20185;-81
2021/06/22 00:34:16;;;;;;;0.82;0.77;;;16.50;99.90;;;;;;5055206;28;20206;-80
2021/06/22 00:36:42;;;;;;;1.10;1.00;;;16.50;99.90;;;;;;5075393;28;20188;-80
2021/06/22 00:39:07;;;;;;;1.10;1.00;;;16.50;99.90;;;;;;5058848;28;20239;-80
2021/06/22 00:41:33;;;;;;;1.35;1.00;;;16.40;99.90;;;;;;5074457;28;20182;-79
2021/06/22 00:44:07;;;;;;;2.38;1.23;;;16.50;99.90;;;;;;5057827;28;20190;-80
2021/06/22 00:46:34;;;;;;;1.05;0.95;;;16.40;99.90;;;;;;5057702;28;20675;-79
2021/06/22 00:49:00;;;;;;;1.45;0.98;;;16.40;99.90;;;;;;5073604;28;20214;-77
2021/06/22 00:51:25;;;;;;;0.70;0.70;;;16.40;99.90;;;;;;5052940;28;20735;-78
2021/06/22 00:53:51;;;;;;;0.80;0.80;;;16.40;99.90;;;;;;5052983;28;20239;-77
2021/06/22 00:56:17;;;;;;;0.63;0.60;;;16.40;99.90;;;;;;5069761;28;20184;-76
2021/06/22 00:58:43;;;;;;;0.77;0.77;;;16.40;99.90;;;;;;5069189;28;20781;-78
2021/06/22 01:01:09;;;;;;;0.63;0.60;;;16.50;99.90;;;;;;5069065;28;20186;-78
2021/06/22 01:03:34;;;;;;;1.50;0.90;;;16.50;99.90;;;;;;5069252;28;20191;-78
2021/06/22 01:06:01;;;;;;;1.20;0.93;;;16.50;99.90;;;;;;5052974;28;20224;-78
2021/06/22 01:08:27;;;;;;;0.98;0.68;;;16.40;99.90;;;;;;5070249;28;20311;-78
2021/06/22 01:10:53;;;;;;;1.83;0.70;;;16.40;99.90;;;;;;5052631;28;20705;-78
2021/06/22 01:13:19;;;;;;;0.98;0.90;;;16.50;99.90;;;;;;5069553;28;20205;-78
2021/06/22 01:15:45;;;;;;;0.77;0.77;;;16.40;99.90;;;;;;5069459;28;20246;-78
2021/06/22 01:18:11;;;;;;;0.95;0.90;;;16.40;99.90;;;;;;5065168;28;20177;-78
2021/06/22 01:20:37;;;;;;;1.27;1.17;;;16.50;99.90;;;;;;5070037;28;20197;-78
2021/06/22 01:23:07;;;;;;;0.77;0.77;;;16.40;99.90;;;;;;5070190;28;20177;-79
2021/06/22 01:25:34;;;;;;;1.17;0.80;;;16.30;99.90;;;;;;5094315;22;20655;-72
2021/06/22 01:28:00;;;;;;;1.20;1.10;;;16.30;99.90;;;;;;5079518;28;20201;-72
2021/06/22 01:30:29;;;;;;;1.00;1.00;;;16.10;99.90;;;;;;5081390;28;20620;-72
2021/06/22 01:32:56;;;;;;;1.38;1.23;;;16.00;99.90;;;;;;5079023;28;20258;-73
2021/06/22 01:35:21;;;;;;;1.10;0.80;;;16.00;99.90;;;;;;5069810;28;20193;-70
2021/06/22 01:38:08;;;;;;;1.15;1.00;;;16.00;99.90;;;;;;5078065;28;20176;-73
2021/06/22 01:40:46;;;;;;;0.98;0.90;;;16.10;99.90;;;;;;5072930;28;20663;-73
2021/06/22 01:43:11;;;;;;;0.82;0.75;;;16.10;99.90;;;;;;5073308;28;20248;-73
2021/06/22 01:45:37;;;;;;;1.08;0.98;;;16.10;99.90;;;;;;5071344;28;20213;-73
2021/06/22 01:48:04;;;;;;;11.20;1.40;;;16.00;99.90;;;;;;5076639;28;20604;-73
2021/06/22 01:50:30;;;;;;;0.88;0.80;;;16.00;99.90;;;;;;5079862;28;20731;-74
2021/06/22 01:52:55;;;;;;;0.60;0.57;;;16.10;99.90;;;;;;5075497;28;20299;-73
2021/06/22 01:58:05;;;;;;;0.90;0.90;;;16.10;99.90;;;;;;5074772;28;20519;-71
2021/06/22 02:00:31;;;;;;;0.82;0.82;;;16.00;99.90;;;;;;5072406;28;20200;-72
2021/06/22 02:02:57;;;;;;;0.85;0.80;;;15.90;99.90;;;;;;5054013;28;20181;-71
2021/06/22 02:05:23;;;;;;;1.02;0.88;;;15.90;99.90;;;;;;5072795;28;20197;-73
2021/06/22 02:07:48;;;;;;;0.98;0.93;;;15.90;99.90;;;;;;5055466;28;20184;-75
2021/06/22 02:10:14;;;;;;;1.10;1.00;;;15.90;99.90;;;;;;5076898;28;20260;-72
2021/06/22 02:12:40;;;;;;;1.10;0.90;;;15.90;99.90;;;;;;5075726;28;20212;-75
2021/06/22 02:15:07;;;;;;;1.10;1.00;;;15.90;99.90;;;;;;5075926;28;20718;-73
2021/06/22 02:17:33;;;;;;;1.00;0.90;;;15.80;99.90;;;;;;5077196;28;20192;-74
2021/06/22 02:19:59;;;;;;;1.70;1.55;;;15.80;99.90;;;;;;5072663;28;20176;-72
2021/06/22 02:22:25;;;;;;;0.98;0.88;;;15.70;99.90;;;;;;5077302;28;20697;-73
2021/06/22 02:24:51;;;;;;;1.48;1.20;;;15.80;99.90;;;;;;5080837;28;20212;-74
2021/06/22 02:27:28;;;;;;;1.35;1.20;;;15.80;99.90;;;;;;5077226;28;20192;-72
2021/06/22 02:29:54;;;;;;;2.13;1.65;;;15.70;99.90;;;;;;5073408;28;20189;-75
2021/06/22 02:32:19;;;;;;;1.80;1.38;;;15.70;99.90;;;;;;5074811;28;20220;-73
2021/06/22 02:34:45;;;;;;;1.50;1.40;;;15.60;99.90;;;;;;5056084;28;20194;-73
2021/06/22 02:37:11;;;;;;;2.58;1.60;;;15.70;99.90;;;;;;5075019;28;20354;-74
2021/06/22 02:39:37;;;;;;;1.40;1.30;;;15.60;99.90;;;;;;5073403;28;20174;-72
2021/06/22 02:42:04;;;;;;;2.03;1.50;;;15.60;99.90;;;;;;5072092;28;20264;-73
2021/06/22 02:44:29;;;;;;;1.40;1.30;;;15.60;99.90;;;;;;5077789;28;20219;-74
2021/06/22 02:46:55;;;;;;;1.92;1.30;;;15.50;99.90;;;;;;5071805;28;20181;-73
2021/06/22 02:49:20;;;;;;;1.60;1.30;;;15.60;99.90;;;;;;5072300;28;20666;-74
2021/06/22 02:51:46;;;;;;;2.15;1.73;;;15.50;99.90;;;;;;5071702;28;20208;-72
2021/06/22 02:54:13;;;;;;;1.15;1.05;;;15.50;99.90;;;;;;5071742;28;20251;-74
2021/06/22 02:56:38;;;;;;;1.45;1.20;;;15.50;99.90;;;;;;5069619;28;20204;-75
2021/06/22 02:59:04;;;;;;;1.33;1.23;;;15.40;99.90;;;;;;5073115;28;20871;-76
2021/06/22 03:01:29;;;;;;;2.20;1.63;;;15.30;99.90;;;;;;5052466;28;20186;-74
2021/06/22 03:03:57;;;;;;;1.80;1.48;;;15.10;99.90;;;;;;5073493;28;20281;-74
2021/06/22 03:06:23;;;;;;;3.40;1.80;;;14.90;99.90;;;;;;5077891;28;20242;-72
2021/06/22 03:08:48;;;;;;;1.88;1.48;;;14.90;99.90;;;;;;5076620;28;20177;-74
2021/06/22 03:11:14;;;;;;;1.33;1.17;;;15.00;99.90;;;;;;5071845;28;20611;-74
2021/06/22 03:13:40;;;;;;;3.25;1.67;;;14.80;99.90;;;;;;5073403;28;20213;-75
2021/06/22 03:16:05;;;;;;;1.65;1.23;;;14.80;99.90;;;;;;5056863;28;20246;-71
2021/06/22 03:18:31;;;;;;;1.40;1.30;;;14.80;99.90;;;;;;5066878;28;20193;-74
2021/06/22 03:20:56;;;;;;;1.02;1.00;;;14.70;99.90;;;;;;5073476;28;20177;-71
2021/06/22 03:23:22;;;;;;;1.90;1.40;;;14.70;99.90;;;;;;5071130;28;20208;-73
2021/06/22 03:25:48;;;;;;;1.92;1.13;;;14.70;99.90;;;;;;5068626;28;20275;-74
2021/06/22 03:28:14;;;;;;;1.20;1.10;;;14.70;99.90;;;;;;5078025;28;20879;-73
2021/06/22 03:30:42;;;;;;;1.95;0.93;;;14.70;99.90;;;;;;5070015;28;20190;-73
2021/06/22 03:33:08;;;;;;;1.58;1.40;;;14.80;99.90;;;;;;5069172;28;20212;-72
2021/06/22 03:35:34;;;;;;;2.80;1.30;;;14.70;99.90;;;;;;5070830;28;20177;-71
2021/06/22 03:38:00;;;;;;;1.58;1.30;;;14.80;99.90;;;;;;5068606;28;20173;-71
2021/06/22 03:40:25;;;;;;;4.57;1.48;;;14.70;99.90;;;;;;5068403;28;20184;-72
2021/06/22 03:42:51;;;;;;;3.40;1.70;;;14.70;99.90;;;;;;5075649;28;20186;-72
2021/06/22 03:45:17;;;;;;;2.28;1.65;;;14.70;99.90;;;;;;5073594;28;20180;-73
2021/06/22 03:47:43;;;;;;;1.00;0.93;;;14.70;99.90;;;;;;5072461;28;20189;-73
2021/06/22 03:50:09;;;;;;;1.98;1.33;;;14.80;99.90;;;;;;5072744;28;20546;-72
2021/06/22 03:52:35;;;;;;;1.35;1.25;;;14.70;99.90;;;;;;5070673;28;20212;-73
2021/06/22 03:55:02;;;;;;;2.15;1.48;;;14.70;99.90;;;;;;5073690;28;20672;-75
2021/06/22 03:57:28;;;;;;;2.28;1.55;;;14.70;99.90;;;;;;5074192;28;20258;-74
2021/06/22 03:59:55;;;;;;;4.50;1.80;;;14.80;99.90;;;;;;5070757;28;20174;-72
2021/06/22 04:02:20;;;;;;;2.50;1.67;;;14.90;99.90;;;;;;5066894;28;20264;-73
2021/06/22 04:04:46;;;;;;;2.30;1.70;;;14.90;99.90;;;;;;5079858;28;20288;-71
2021/06/22 04:07:11;;;;;;;1.95;1.70;;;14.90;99.90;;;;;;5075322;28;20261;-73
2021/06/22 04:09:37;;;;;;;3.58;1.80;;;14.90;99.90;;;;;;5073064;28;20671;-73
2021/06/22 04:12:03;;;;;;;1.75;1.40;;;14.90;99.90;;;;;;5073558;28;20648;-72
2021/06/22 04:14:29;;;;;;;2.67;1.95;;;15.00;99.90;;;;;;5069675;28;20256;-74
2021/06/22 04:16:55;;;;;;;2.03;1.60;;;14.90;99.90;;;;;;5072570;28;20268;-71
2021/06/22 04:19:21;;;;;;;2.50;2.15;;;14.70;99.90;;;;;;5069997;28;20264;-75
2021/06/22 04:21:46;;;;;;;2.70;1.30;;;14.60;99.90;;;;;;5068584;28;20231;-71
2021/06/22 04:24:12;;;;;;;5.28;2.22;;;14.70;99.90;;;;;;5073580;28;20202;-73
2021/06/22 04:26:38;;;;;;;4.95;2.45;;;14.90;99.90;;;;;;5050939;28;20675;-74
2021/06/22 04:29:04;;;;;;;2.78;1.50;;;15.10;99.90;;;;;;5074787;28;20179;-72
2021/06/22 04:31:30;;;;;;;2.67;2.03;;;15.20;99.90;;;;;;5072507;28;20193;-70
2021/06/22 04:33:56;;;;;;;3.40;2.00;;;15.30;99.90;;;;;;5070406;28;20243;-74
2021/06/22 04:36:21;;;;;;;2.40;2.00;;;15.30;99.90;;;;;;5076331;28;20212;-72
2021/06/22 04:38:47;;;;;;;5.28;2.00;;;15.10;99.90;;;;;;5074768;28;20630;-73
2021/06/22 04:41:13;;;;;;;2.90;1.80;;;15.30;99.90;;;;;;5072911;28;20181;-72
2021/06/22 04:43:38;;;;;;;3.40;1.85;;;15.60;99.90;;;;;;5070867;28;20665;-69
2021/06/22 04:46:06;;;;;;;2.22;1.73;;;15.90;99.90;;;;;;5075153;28;20189;-74
2021/06/22 04:48:32;;;;;;;2.75;2.10;;;16.10;99.90;;;;;;5070774;28;20212;-71
2021/06/22 04:50:58;;;;;;;2.13;1.90;;;16.10;99.90;;;;;;5072699;28;20659;-73
2021/06/22 04:53:26;;;;;;;2.65;1.58;;;16.20;99.90;;;;;;5070085;28;20205;-73
2021/06/22 04:55:52;;;;;;;2.78;1.80;;;16.20;99.90;;;;;;5071473;28;20496;-76
2021/06/22 04:58:18;;;;;;;2.05;1.58;;;16.30;99.90;;;;;;5072042;28;20208;-72
2021/06/22 05:00:43;;;;;;;2.60;1.73;;;16.50;99.90;;;;;;5070015;28;20232;-70
2021/06/22 05:03:09;;;;;;;2.67;1.70;;;16.70;99.90;;;;;;5076392;28;20229;-75
2021/06/22 05:05:35;;;;;;;2.47;1.98;;;16.90;99.90;;;;;;5070978;28;20192;-72
2021/06/22 05:08:01;;;;;;;1.98;1.70;;;17.00;99.90;;;;;;5071356;28;20180;-72
2021/06/22 05:10:26;;;;;;;3.95;1.58;;;17.00;99.90;;;;;;5073778;28;20189;-73
2021/06/22 05:12:52;;;;;;;2.00;1.40;;;16.90;99.90;;;;;;5065813;28;20205;-72
2021/06/22 05:15:18;;;;;;;2.08;1.63;;;16.80;99.90;;;;;;5074948;28;20658;-71
2021/06/22 05:17:44;;;;;;;3.28;1.77;;;16.70;99.90;;;;;;5074133;28;20224;-74
2021/06/22 05:20:10;;;;;;;2.10;1.75;;;16.80;99.90;;;;;;5057773;28;21403;-71
2021/06/22 05:22:36;;;;;;;2.08;1.92;;;16.90;99.90;;;;;;5074553;28;20174;-72
2021/06/22 05:25:04;;;;;;;3.83;1.98;;;17.10;99.90;;;;;;5076484;28;20197;-73
2021/06/22 05:27:30;;;;;;;2.08;1.75;;;17.10;99.90;;;;;;5074383;28;20185;-74
2021/06/22 05:29:55;;;;;;;2.03;1.48;;;17.10;99.90;;;;;;5078612;28;20646;-74
2021/06/22 05:32:21;;;;;;;1.88;1.60;;;17.10;99.90;;;;;;5076155;28;20178;-73
2021/06/22 05:34:47;;;;;;;4.95;2.13;;;17.10;99.90;;;;;;5079914;28;20274;-73
2021/06/22 05:37:12;;;;;;;2.85;1.73;;;17.20;99.90;;;;;;5080467;28;20178;-72
2021/06/22 05:39:38;;;;;;;1.58;1.25;;;17.20;99.90;;;;;;5074611;28;21293;-72
2021/06/22 05:42:04;;;;;;;5.18;1.77;;;17.20;99.90;;;;;;5069886;28;20234;-74
2021/06/22 05:44:30;;;;;;;2.40;1.77;;;16.90;99.90;;;;;;5077278;28;20574;-71
2021/06/22 05:46:55;;;;;;;2.25;1.50;;;16.70;99.90;;;;;;5068518;28;20181;-74
2021/06/22 05:49:21;;;;;;;2.00;1.80;;;16.70;99.90;;;;;;5072084;28;20181;-73
2021/06/22 05:51:46;;;;;;;3.55;2.03;;;16.90;99.90;;;;;;5071449;28;20182;-73
2021/06/22 05:54:12;;;;;;;1.90;1.40;;;17.40;99.90;;;;;;5069625;28;20602;-73
2021/06/22 05:56:38;;;;;;;1.60;1.50;;;18.60;99.90;;;;;;5073363;28;20534;-73
2021/06/22 05:59:04;;;;;;;2.47;1.65;;;18.90;99.90;;;;;;5071540;28;20185;-74
2021/06/22 06:01:30;;;;;;;2.67;1.23;;;18.90;99.90;;;;;;5052017;28;20186;-74
2021/06/22 06:03:55;;;;;;;1.58;1.45;;;19.20;99.90;;;;;;5074838;28;20682;-71
2021/06/22 06:06:21;;;;;;;1.40;1.30;;;19.70;99.90;;;;;;5053654;28;21171;-74
2021/06/22 06:08:46;;;;;;;1.77;1.55;;;20.40;99.90;;;;;;5074019;28;20178;-74
2021/06/22 06:11:14;;;;;;;2.30;1.30;;;20.70;99.90;;;;;;5078193;28;20180;-77
2021/06/22 06:13:40;;;;;;;3.30;1.52;;;21.80;99.90;;;;;;5074428;28;21223;-75
2021/06/22 06:16:06;;;;;;;2.33;1.50;;;22.50;99.90;;;;;;5056233;28;20211;-77
2021/06/22 06:18:33;;;;;;;1.42;1.20;;;22.80;99.90;;;;;;5075673;28;20182;-74
2021/06/22 06:21:01;;;;;;;2.38;1.30;;;22.40;99.90;;;;;;5076155;28;20177;-75
2021/06/22 06:23:39;;;;;;;4.68;1.88;;;21.70;99.90;;;;;;5071252;28;20239;-74
2021/06/22 06:26:06;;;;;;;2.10;1.23;;;21.10;99.90;;;;;;5076318;28;20197;-74
2021/06/22 06:28:36;;;;;;;3.35;1.10;;;20.50;99.90;;;;;;5074110;28;20280;-75
2021/06/22 06:31:02;;;;;;;1.88;1.00;;;20.10;99.90;;;;;;5075000;28;20311;-74
2021/06/22 06:33:27;;;;;;;1.70;1.20;;;19.90;99.90;;;;;;5075968;28;20213;-75
2021/06/22 06:35:54;;;;;;;1.92;1.05;;;19.70;99.90;;;;;;5074811;28;20191;-75
2021/06/22 06:38:20;;;;;;;1.13;1.00;;;19.80;99.90;;;;;;5053892;28;20644;-74
2021/06/22 06:40:46;;;;;;;2.22;1.10;;;19.50;99.90;;;;;;5075577;28;20178;-75
2021/06/22 06:43:11;;;;;;;1.45;1.27;;;19.90;99.90;;;;;;5071650;28;21106;-75
2021/06/22 06:45:37;;;;;;;2.03;1.10;;;20.30;99.90;;;;;;5070872;28;20177;-76
2021/06/22 06:48:03;;;;;;;1.63;1.10;;;20.60;99.90;;;;;;5075452;28;20173;-75
2021/06/22 06:50:29;;;;;;;1.73;0.90;;;21.00;99.90;;;;;;5073165;28;20216;-76
2021/06/22 06:52:54;;;;;;;1.48;1.10;;;21.10;99.90;;;;;;5069053;28;20274;-75
2021/06/22 06:57:57;;;;;;;4.07;1.75;;;21.00;99.90;;;;;;5076825;28;20182;-75
2021/06/22 07:00:24;;;;;;;2.40;1.10;;;20.80;99.90;;;;;;5070143;28;20265;-71
2021/06/22 07:02:50;;;;;;;2.20;1.35;;;20.30;99.90;;;;;;5074094;28;20178;-78
2021/06/22 07:05:18;;;;;;;1.25;1.10;;;20.10;99.90;;;;;;5073337;28;20255;-76
2021/06/22 07:07:43;;;;;;;1.38;1.27;;;19.90;99.90;;;;;;5073106;28;20192;-74
2021/06/22 07:10:10;;;;;;;2.47;1.45;;;19.70;99.90;;;;;;5057301;28;20176;-78
2021/06/22 07:12:36;;;;;;;1.05;0.90;;;19.80;99.90;;;;;;5072458;28;20215;-75
2021/06/22 07:15:02;;;;;;;1.67;1.02;;;19.60;99.90;;;;;;5073016;28;20209;-76
2021/06/22 07:17:28;;;;;;;5.05;1.45;;;19.50;99.90;;;;;;5073833;28;20273;-75
2021/06/22 07:19:53;;;;;;;2.67;1.23;;;19.50;99.90;;;;;;5073961;28;20603;-75
2021/06/22 07:22:19;;;;;;;2.08;1.52;;;19.20;99.90;;;;;;5072981;28;20191;-75
2021/06/22 07:24:45;;;;;;;1.17;1.08;;;19.60;99.90;;;;;;5068430;28;20197;-76
2021/06/22 07:27:10;;;;;;;1.00;0.90;;;19.60;99.90;;;;;;5074147;28;20197;-76
2021/06/22 07:29:36;;;;;;;1.27;0.80;;;19.50;99.90;;;;;;5076650;28;20229;-76
2021/06/22 07:32:02;;;;;;;2.40;1.33;;;19.30;99.90;;;;;;5073438;28;20263;-75
2021/06/22 07:34:28;;;;;;;1.02;0.93;;;19.50;99.90;;;;;;5073718;28;20712;-76
2021/06/22 07:36:53;;;;;;;1.85;1.30;;;19.70;99.90;;;;;;5072343;28;20638;-76
2021/06/22 07:39:19;;;;;;;1.13;0.98;;;19.70;99.90;;;;;;5071601;28;20279;-77
2021/06/22 07:41:45;;;;;;;1.05;0.73;;;19.50;99.90;;;;;;5071334;28;20185;-74
2021/06/22 07:44:10;;;;;;;1.15;1.05;;;19.50;99.90;;;;;;5052779;28;20197;-74
2021/06/22 07:46:36;;;;;;;2.42;1.35;;;19.80;99.90;;;;;;5075739;28;20514;-74
2021/06/22 07:49:02;;;;;;;1.13;0.95;;;19.70;99.90;;;;;;5073083;28;20193;-75
2021/06/22 07:51:28;;;;;;;0.98;0.95;;;19.80;99.90;;;;;;5072398;28;20770;-74
2021/06/22 07:53:53;;;;;;;1.48;1.10;;;19.70;99.90;;;;;;5076460;28;20221;-74
2021/06/22 07:56:22;;;;;;;1.45;0.73;;;19.40;99.90;;;;;;5074938;28;20186;-73
2021/06/22 07:58:48;;;;;;;2.35;1.05;;;19.30;99.90;;;;;;5073690;28;20189;-73
2021/06/22 08:01:13;;;;;;;1.10;1.00;;;19.70;99.90;;;;;;5074826;28;20666;-74
2021/06/22 08:03:39;;;;;;;1.50;1.02;;;19.70;99.90;;;;;;5073034;28;20314;-73
2021/06/22 08:06:05;;;;;;;0.88;0.82;;;20.30;99.90;;;;;;5073394;28;20181;-78
2021/06/22 08:08:31;;;;;;;2.92;1.15;;;20.20;99.90;;;;;;5074819;28;20188;-81
2021/06/22 08:10:57;;;;;;;1.73;1.10;;;19.90;99.90;;;;;;5075064;28;20193;-74
2021/06/22 08:13:24;;;;;;;0.95;0.88;;;19.80;99.90;;;;;;5069554;28;20213;-75
2021/06/22 08:15:51;;;;;;;1.27;1.15;;;20.00;99.90;;;;;;5071861;28;20592;-75
2021/06/22 08:18:17;;;;;;;1.02;0.90;;;20.40;99.90;;;;;;5073818;28;20162;-74
2021/06/22 08:20:44;;;;;;;1.45;0.98;;;20.50;99.90;;;;;;5073811;28;20192;-75
2021/06/22 08:23:11;;;;;;;0.93;0.80;;;20.80;99.90;;;;;;5074500;28;20208;-75
2021/06/22 08:25:37;;;;;;;0.88;0.88;;;21.20;99.90;;;;;;5075060;28;20275;-75
2021/06/22 08:28:03;;;;;;;2.88;1.23;;;21.20;99.90;;;;;;5073439;28;20181;-75
2021/06/22 08:30:31;;;;;;;2.40;1.20;;;21.10;99.90;;;;;;5057702;28;20193;-76
2021/06/22 08:32:57;;;;;;;1.73;1.05;;;21.10;99.90;;;;;;5074277;28;20291;-74
2021/06/22 08:35:25;;;;;;;1.38;1.27;;;21.40;99.90;;;;;;5056838;28;21110;-77
2021/06/22 08:37:52;;;;;;;2.63;1.30;;;21.50;99.90;;;;;;5055338;28;20207;-75
2021/06/22 08:40:18;;;;;;;2.00;1.30;;;21.60;99.90;;;;;;5068879;28;20655;-76
2021/06/22 08:42:43;;;;;;;2.13;1.33;;;21.60;99.90;;;;;;5055641;28;20223;-76
2021/06/22 08:45:11;;;;;;;1.20;1.10;;;21.70;99.90;;;;;;5071728;28;20426;-74
2021/06/22 08:47:37;;;;;;;2.90;1.17;;;21.90;99.90;;;;;;5073333;28;20231;-75
2021/06/22 08:50:04;;;;;;;1.52;1.30;;;21.70;99.90;;;;;;5074205;28;20650;-75
2021/06/22 08:52:32;;;;;;;3.10;1.25;;;21.60;99.90;;;;;;5072684;28;20259;-75
2021/06/22 08:54:59;;;;;;;0.95;0.95;;;21.50;99.90;;;;;;5073708;28;20193;-75
2021/06/22 08:57:26;;;;;;;1.00;0.90;;;21.70;99.90;;;;;;5076770;28;20263;-76
2021/06/22 08:59:52;;;;;;;1.02;1.00;;;21.60;99.90;;;;;;5076248;28;20169;-76
2021/06/22 09:02:25;;;;;;;1.83;1.30;;;21.60;99.90;;;;;;5075902;28;20181;-75
2021/06/22 09:04:52;;;;;;;2.30;1.20;;;21.70;99.90;;;;;;5059011;28;20241;-74
2021/06/22 09:07:51;;;;;;;1.67;1.00;;;21.80;99.90;;;;;;5075971;28;20581;-75
2021/06/22 09:10:32;;;;;;;2.10;1.50;;;21.50;99.90;;;;;;5077152;28;21152;-76
2021/06/22 09:13:09;;;;;;;1.40;1.20;;;21.60;99.90;;;;;;5077892;28;20614;-75
2021/06/22 09:15:38;;;;;;;2.20;1.30;;;21.70;99.90;;;;;;5079808;28;20169;-75
2021/06/22 09:18:25;;;;;;;3.15;1.75;;;21.70;99.90;;;;;;5076717;28;20230;-76
2021/06/22 09:20:51;;;;;;;1.90;1.30;;;21.60;99.90;;;;;;5077501;28;20252;-77
2021/06/22 09:23:37;;;;;;;1.33;1.02;;;21.70;99.90;;;;;;5076961;28;20200;-77
2021/06/22 09:26:10;;;;;;;1.30;1.20;;;21.70;99.90;;;;;;5075903;28;20229;-76
2021/06/22 09:28:36;;;;;;;1.77;1.20;;;21.20;99.90;;;;;;5076736;28;20219;-77
2021/06/22 09:31:04;;;;;;;2.00;1.42;;;21.10;99.90;;;;;;5077898;28;20262;-76
2021/06/22 09:33:35;;;;;;;2.25;1.35;;;20.60;99.90;;;;;;5077733;28;20583;-78
2021/06/22 09:36:05;;;;;;;2.05;1.90;;;20.60;99.90;;;;;;5078041;28;20188;-77
2021/06/22 09:38:36;;;;;;;2.78;1.38;;;20.70;99.90;;;;;;5075358;28;20554;-77
2021/06/22 09:41:09;;;;;;;1.98;1.33;;;20.80;99.90;;;;;;5075622;28;20545;-77
2021/06/22 09:43:50;;;;;;;2.78;1.27;;;20.60;99.90;;;;;;5060691;28;20618;-75
2021/06/22 09:46:29;;;;;;;1.33;1.23;;;20.20;99.90;;;;;;5078435;28;20178;-79
2021/06/22 09:48:59;;;;;;;1.90;1.40;;;20.10;99.90;;;;;;5076657;28;20184;-76
2021/06/22 09:51:34;;;;;;;1.85;1.40;;;20.50;99.90;;;;;;5077805;28;20174;-77
2021/06/22 09:54:10;;;;;;;1.58;1.48;;;20.70;99.90;;;;;;5076172;28;20252;-79
2021/06/22 09:56:36;;;;;;;1.52;1.42;;;20.90;99.90;;;;;;5076262;28;20640;-79
2021/06/22 09:59:08;;;;;;;1.92;1.20;;;20.90;99.90;;;;;;5079252;28;20176;-80
2021/06/22 10:01:38;;;;;;;1.27;1.17;;;21.00;99.90;;;;;;5075973;28;21260;-78
2021/06/22 10:04:18;;;;;;;2.95;1.20;;;21.00;99.90;;;;;;5076695;28;20204;-82
2021/06/22 10:07:02;;;;;;;4.32;1.75;;;21.00;99.90;;;;;;5076112;28;20185;-79
2021/06/22 10:09:29;;;;;;;2.15;1.27;;;20.90;99.90;;;;;;5073066;28;20562;-78
2021/06/22 10:11:57;;;;;;;1.45;1.35;;;21.00;99.90;;;;;;5078679;28;20187;-78
2021/06/22 10:14:30;;;;;;;1.48;1.35;;;21.10;99.90;;;;;;5077704;28;20213;-78
2021/06/22 10:16:58;;;;;;;1.88;1.05;;;21.20;99.90;;;;;;5076986;28;20256;-80
2021/06/22 10:19:24;;;;;;;1.45;1.15;;;21.10;99.90;;;;;;5075700;28;20187;-81
2021/06/22 10:21:50;;;;;;;1.83;1.13;;;21.00;99.90;;;;;;5059048;28;20181;-84
2021/06/22 10:24:18;;;;;;;1.95;1.20;;;21.00;99.90;;;;;;5059943;28;20527;-77
2021/06/22 10:26:44;;;;;;;2.08;1.67;;;20.70;99.90;;;;;;5056668;28;20210;-78
2021/06/22 10:29:10;;;;;;;3.35;1.70;;;20.80;99.90;;;;;;5076749;28;20185;-76
2021/06/22 10:31:36;;;;;;;2.65;1.42;;;21.10;99.90;;;;;;5060563;28;20189;-79
2021/06/22 10:34:01;;;;;;;2.83;1.75;;;21.20;99.90;;;;;;5078834;28;20303;-82
2021/06/22 10:36:30;;;;;;;2.28;1.50;;;21.10;99.90;;;;;;5077538;28;20356;-80
2021/06/22 10:39:13;;;;;;;1.70;1.02;;;21.20;99.90;;;;;;5075353;28;20714;-82
2021/06/22 10:41:44;;;;;;;1.75;1.52;;;21.50;99.90;;;;;;5059400;28;20185;-76
2021/06/22 10:44:48;;;;;;;3.33;1.30;;;21.60;99.90;;;;;;5067657;28;21025;-78
2021/06/22 10:47:30;;;;;;;2.60;1.77;;;21.80;99.90;;;;;;5045102;28;20241;-74
2021/06/22 10:50:03;;;;;;;1.73;1.30;;;21.70;99.90;;;;;;5057792;28;20235;-75
2021/06/22 10:52:41;;;;;;;1.25;1.13;;;22.00;99.90;;;;;;5076094;28;20687;-76
2021/06/22 10:55:20;;;;;;;1.30;1.08;;;21.80;99.90;;;;;;5058080;28;20993;-77
2021/06/22 10:58:08;;;;;;;1.77;1.38;;;21.20;99.90;;;;;;5076154;28;20187;-75
2021/06/22 11:00:37;;;;;;;1.00;0.95;;;21.50;99.90;;;;;;5075869;28;21027;-75
2021/06/22 11:03:08;;;;;;;1.88;1.23;;;21.90;99.90;;;;;;5077471;28;20744;-77
2021/06/22 11:05:36;;;;;;;3.72;1.60;;;22.30;99.90;;;;;;5060249;28;20208;-76
2021/06/22 11:08:08;;;;;;;1.65;1.20;;;22.60;99.90;;;;;;5066311;28;20210;-73
2021/06/22 11:10:35;;;;;;;3.70;1.90;;;22.60;99.90;;;;;;5055935;28;20693;-75
2021/06/22 11:13:01;;;;;;;1.02;0.90;;;22.50;99.90;;;;;;5056856;28;20227;-74
2021/06/22 11:15:49;;;;;;;2.00;1.17;;;22.40;99.90;;;;;;5070417;28;20645;-75
2021/06/22 11:18:19;;;;;;;1.60;1.50;;;22.30;99.90;;;;;;5069328;28;20184;-74
2021/06/22 11:21:06;;;;;;;1.10;1.00;;;22.20;99.90;;;;;;5074413;28;20643;-73
2021/06/22 11:24:06;;;;;;;2.80;1.15;;;21.90;99.90;;;;;;5030453;28;20209;-73
2021/06/22 11:27:00;;;;;;;1.30;1.20;;;21.80;99.90;;;;;;5050844;28;20563;-71
2021/06/22 11:29:32;;;;;;;3.10;1.30;;;21.80;99.90;;;;;;5052742;28;20201;-75
2021/06/22 11:32:01;;;;;;;1.05;0.95;;;21.70;99.90;;;;;;5074482;28;20191;-75
2021/06/22 11:34:50;;;;;;;1.50;1.13;;;21.80;99.90;;;;;;5074817;28;20270;-74
2021/06/22 11:37:16;;;;;;;1.10;0.98;;;22.10;99.90;;;;;;5076426;28;20542;-75
2021/06/22 11:40:01;;;;;;;1.42;1.00;;;22.10;99.90;;;;;;5073574;28;20379;-76
2021/06/22 11:42:27;;;;;;;1.98;0.85;;;21.50;99.90;;;;;;5057959;28;20181;-75
2021/06/22 11:44:57;;;;;;;1.10;0.90;;;21.40;99.90;;;;;;5076424;28;20229;-76
2021/06/22 11:47:33;;;;;;;1.02;0.90;;;21.60;99.90;;;;;;5073715;28;20189;-76
2021/06/22 11:50:17;;;;;;;1.42;1.02;;;21.90;99.90;;;;;;5074432;28;20513;-77
2021/06/22 11:52:45;;;;;;;1.77;1.20;;;21.80;99.90;;;;;;5073947;28;20520;-78
2021/06/22 11:55:18;;;;;;;1.15;1.08;;;22.00;99.90;;;;;;5077103;28;20182;-75
2021/06/22 11:57:57;;;;;;;1.45;1.35;;;22.10;99.90;;;;;;5074827;28;21151;-77
2021/06/22 12:00:33;;;;;;;2.85;0.93;;;22.10;99.90;;;;;;5072959;28;20173;-75
2021/06/22 12:03:01;;;;;;;2.35;1.25;;;22.00;99.90;;;;;;5072234;28;20176;-80
2021/06/22 12:05:29;;;;;;;1.63;1.27;;;22.40;99.90;;;;;;5072567;28;20172;-76
2021/06/22 12:07:56;;;;;;;1.02;0.93;;;22.80;99.90;;;;;;5073587;28;20184;-77
2021/06/22 12:10:51;;;;;;;1.77;1.15;;;23.10;99.90;;;;;;5074907;28;20667;-81
2021/06/22 12:13:30;;;;;;;1.45;1.27;;;23.50;99.90;;;;;;5058288;28;20224;-79
2021/06/22 12:15:57;;;;;;;1.15;0.95;;;23.70;99.90;;;;;;5074205;28;20177;-75
2021/06/22 12:18:28;;;;;;;1.10;0.80;;;23.80;99.90;;;;;;5057571;28;20196;-79
2021/06/22 12:20:55;;;;;;;0.98;0.90;;;24.00;99.90;;;;;;5056347;28;20188;-78
2021/06/22 12:23:21;;;;;;;1.40;0.90;;;24.00;99.90;;;;;;5075412;28;20204;-80
2021/06/22 12:25:52;;;;;;;0.80;0.80;;;23.90;99.90;;;;;;5074411;28;20279;-75
2021/06/22 12:28:21;;;;;;;1.50;0.95;;;24.00;99.90;;;;;;5073071;28;20180;-75
2021/06/22 12:30:49;;;;;;;1.75;1.13;;;23.90;99.90;;;;;;5075303;28;20849;-76
2021/06/22 12:33:17;;;;;;;0.85;0.80;;;24.00;99.90;;;;;;5078433;28;20690;-78
2021/06/22 12:35:47;;;;;;;1.30;1.00;;;23.80;99.90;;;;;;5062408;28;20181;-74
2021/06/22 12:38:15;;;;;;;0.85;0.82;;;23.60;99.90;;;;;;5069886;28;20259;-73
2021/06/22 12:40:54;;;;;;;1.10;0.90;;;23.60;99.90;;;;;;5075829;28;20644;-73
2021/06/22 12:43:37;;;;;;;1.45;0.93;;;23.60;99.90;;;;;;5067547;28;20201;-74
2021/06/22 12:46:03;;;;;;;0.90;0.80;;;23.40;99.90;;;;;;5074393;28;20197;-72
2021/06/22 12:48:29;;;;;;;1.60;0.98;;;23.30;99.90;;;;;;5061894;28;20216;-73
2021/06/22 12:50:56;;;;;;;1.15;0.77;;;23.40;99.90;;;;;;5072843;28;20181;-73
2021/06/22 12:53:22;;;;;;;1.58;1.00;;;23.30;99.90;;;;;;5074347;28;20212;-73
2021/06/22 12:55:50;;;;;;;1.17;0.80;;;23.00;99.90;;;;;;5069787;28;20208;-73
2021/06/22 12:58:16;;;;;;;0.90;0.80;;;23.10;99.90;;;;;;5075452;28;20248;-73